Time;durP1;ratioP1;P1;durP2;ratioP2;P2;SDS_P1;SDS_P2;PMS_P1;PMS_P2;Temp;Humidity;BMP_temperature;BMP_pressure;BME280_temperature;BME280_humidity;BME280_pressure;Samples;Min_cycle;Max_cycle;Signal;HPM_P1;HPM_P2
2023/09/20 00:03:06;;;;;;;3.35;1.17;;;;;;;16.42;64.70;99796.22;10438487;28;20059;-74
2023/09/20 00:08:09;;;;;;;4.25;1.70;;;;;;;16.68;64.17;99810.31;10440043;28;20053;-74
2023/09/20 00:13:12;;;;;;;1.77;1.00;;;;;;;16.53;64.68;99798.53;10443908;28;20567;-74
2023/09/20 00:18:16;;;;;;;4.85;1.58;;;;;;;16.64;64.75;99792.72;10440305;28;20053;-74
2023/09/20 00:23:20;;;;;;;5.65;2.05;;;;;;;16.55;65.06;99808.19;10440053;28;20123;-74
2023/09/20 00:28:23;;;;;;;6.82;1.35;;;;;;;16.58;65.12;99794.28;10427474;28;20045;-73
2023/09/20 00:33:29;;;;;;;2.70;1.38;;;;;;;16.50;65.45;99801.59;10425781;28;20045;-74
2023/09/20 00:38:32;;;;;;;3.13;1.13;;;;;;;16.45;65.36;99796.69;10417592;28;20532;-73
2023/09/20 00:43:37;;;;;;;3.08;1.58;;;;;;;16.52;65.72;99803.13;10441912;28;20067;-74
2023/09/20 00:48:41;;;;;;;6.88;1.90;;;;;;;16.36;66.40;99793.19;10443003;28;20542;-74
2023/09/20 00:53:45;;;;;;;3.38;1.77;;;;;;;16.57;66.03;99802.59;10431604;28;20052;-74
2023/09/20 00:58:50;;;;;;;9.23;2.22;;;;;;;16.49;66.09;99805.34;10447491;28;20044;-74
2023/09/20 01:03:56;;;;;;;5.93;2.10;;;;;;;16.75;65.63;99805.03;10430577;28;20052;-74
2023/09/20 01:08:59;;;;;;;4.45;1.73;;;;;;;16.63;65.92;99826.28;10451481;28;20041;-74
2023/09/20 01:14:04;;;;;;;6.50;1.55;;;;;;;16.53;65.87;99818.34;10450291;28;20048;-74
2023/09/20 01:19:09;;;;;;;7.93;1.90;;;;;;;16.64;66.07;99818.97;10431642;28;20041;-73
2023/09/20 01:24:17;;;;;;;4.05;1.48;;;;;;;16.68;65.82;99810.31;10448118;28;20095;-73
2023/09/20 01:29:20;;;;;;;7.93;1.70;;;;;;;16.70;65.82;99802.88;10449061;28;21508;-74
2023/09/20 01:34:23;;;;;;;5.53;1.90;;;;;;;16.63;66.59;99806.47;10445798;28;20052;-74
2023/09/20 01:39:27;;;;;;;8.27;1.73;;;;;;;16.67;66.04;99814.03;10432494;28;20049;-74
2023/09/20 01:44:30;;;;;;;3.38;1.38;;;;;;;16.52;66.54;99822.09;10446025;28;20048;-74
2023/09/20 01:49:34;;;;;;;4.43;1.60;;;;;;;16.55;66.89;99804.63;10432386;28;20593;-73
2023/09/20 01:54:40;;;;;;;8.82;2.38;;;;;;;16.77;66.28;99786.72;10425346;28;20052;-74
2023/09/20 01:59:44;;;;;;;3.75;1.55;;;;;;;16.43;67.31;99785.22;10443801;28;20081;-74
2023/09/20 02:04:48;;;;;;;6.20;1.83;;;;;;;16.33;67.90;99787.28;10431768;28;20044;-73
2023/09/20 02:09:53;;;;;;;3.75;1.75;;;;;;;16.31;68.04;99800.16;10423578;28;20057;-74
2023/09/20 02:14:56;;;;;;;5.53;2.00;;;;;;;16.53;67.60;99791.25;10447903;28;21228;-73
2023/09/20 02:20:01;;;;;;;3.92;2.08;;;;;;;16.36;68.15;99784.22;10447032;28;20064;-73
2023/09/20 02:25:10;;;;;;;3.88;1.60;;;;;;;16.27;68.29;99790.72;10425462;28;20044;-74
2023/09/20 02:30:16;;;;;;;6.97;2.10;;;;;;;16.49;68.01;99786.38;10438650;28;20051;-74
2023/09/20 02:35:19;;;;;;;5.45;1.90;;;;;;;16.51;67.94;99790.59;10443900;28;20052;-74
2023/09/20 02:40:24;;;;;;;5.75;1.90;;;;;;;16.45;68.40;99790.44;10451599;28;20041;-74
2023/09/20 02:45:29;;;;;;;5.65;2.10;;;;;;;16.40;68.44;99784.72;10445567;28;20124;-74
2023/09/20 02:50:32;;;;;;;6.35;1.92;;;;;;;16.30;69.02;99782.22;10447865;28;20057;-73
2023/09/20 02:55:38;;;;;;;6.18;1.85;;;;;;;16.41;68.81;99775.56;10448355;28;20055;-73
2023/09/20 03:00:46;;;;;;;11.18;2.28;;;;;;;16.33;69.08;99768.31;10428827;28;20052;-74
2023/09/20 03:05:50;;;;;;;9.13;2.17;;;;;;;16.48;68.87;99771.97;10423291;28;20187;-74
2023/09/20 03:10:55;;;;;;;5.45;2.10;;;;;;;16.28;69.67;99768.84;10450722;28;20068;-74
2023/09/20 03:15:58;;;;;;;7.40;1.77;;;;;;;16.59;68.70;99760.72;10443359;28;20509;-74
2023/09/20 03:21:07;;;;;;;7.43;1.95;;;;;;;16.40;69.55;99754.91;10443117;28;20178;-74
2023/09/20 03:26:15;;;;;;;10.80;2.10;;;;;;;16.24;69.93;99761.22;10428308;28;20126;-74
2023/09/20 03:31:22;;;;;;;5.55;2.15;;;;;;;16.23;69.87;99744.09;10428137;28;20416;-74
2023/09/20 03:36:26;;;;;;;6.15;2.08;;;;;;;16.31;69.73;99751.38;10447243;28;20056;-74
2023/09/20 03:41:30;;;;;;;9.02;2.53;;;;;;;16.19;70.47;99753.63;10425125;28;20044;-73
2023/09/20 03:46:33;;;;;;;8.95;2.70;;;;;;;16.24;70.43;99747.69;10432544;28;20055;-74
2023/09/20 03:51:36;;;;;;;7.72;1.95;;;;;;;15.99;71.16;99749.63;10420033;28;20048;-74
2023/09/20 03:56:41;;;;;;;5.85;2.25;;;;;;;16.21;70.68;99739.88;10427126;28;20068;-73
2023/09/20 04:01:45;;;;;;;5.88;2.10;;;;;;;15.97;71.59;99749.81;10423631;28;20131;-73
2023/09/20 04:06:49;;;;;;;5.13;2.03;;;;;;;16.13;71.30;99733.50;10442079;28;20059;-74
2023/09/20 04:11:53;;;;;;;3.30;1.98;;;;;;;16.03;71.64;99732.00;10421748;28;20056;-73
2023/09/20 04:16:56;;;;;;;7.20;1.90;;;;;;;16.08;71.65;99730.47;10422626;28;20053;-74
2023/09/20 04:22:01;;;;;;;6.90;2.03;;;;;;;16.10;71.73;99717.59;10447083;28;20131;-73
2023/09/20 04:27:06;;;;;;;5.40;1.88;;;;;;;15.93;72.28;99713.25;10434605;28;20115;-73
2023/09/20 04:32:09;;;;;;;7.35;2.05;;;;;;;15.97;72.25;99717.31;10434083;28;20523;-74
2023/09/20 04:37:13;;;;;;;5.72;2.00;;;;;;;16.09;71.60;99715.88;10430936;28;20037;-74
2023/09/20 04:42:18;;;;;;;7.68;2.10;;;;;;;16.05;72.14;99721.84;10432866;28;20135;-74
2023/09/20 04:47:22;;;;;;;7.10;2.08;;;;;;;15.99;71.93;99719.81;10434538;28;20114;-74
2023/09/20 04:52:26;;;;;;;11.82;2.42;;;;;;;16.04;71.92;99706.59;10430502;28;20079;-74
2023/09/20 04:57:31;;;;;;;6.15;2.20;;;;;;;15.94;72.50;99709.53;10447407;28;20523;-74
2023/09/20 05:02:34;;;;;;;4.50;1.92;;;;;;;15.73;73.65;99714.69;10448423;28;20134;-74
2023/09/20 05:07:37;;;;;;;5.78;1.75;;;;;;;15.97;72.71;99720.03;10430891;28;20065;-74
2023/09/20 05:12:41;;;;;;;6.57;2.08;;;;;;;15.74;73.35;99729.91;10431755;28;20547;-74
2023/09/20 05:17:45;;;;;;;5.10;1.90;;;;;;;15.98;72.74;99727.13;10425287;28;20535;-74
2023/09/20 05:22:48;;;;;;;6.40;2.30;;;;;;;15.80;73.61;99727.38;10428364;28;21156;-73
2023/09/20 05:27:54;;;;;;;4.93;2.13;;;;;;;15.90;73.51;99733.41;10424800;28;20060;-74
2023/09/20 05:32:58;;;;;;;3.97;2.40;;;;;;;15.96;72.82;99731.84;10420229;28;20053;-74
2023/09/20 05:38:02;;;;;;;5.05;2.22;;;;;;;15.99;72.84;99733.38;10437220;28;20527;-74
2023/09/20 05:43:06;;;;;;;7.15;2.67;;;;;;;15.93;73.04;99733.06;10439588;28;20064;-74
2023/09/20 05:48:10;;;;;;;5.03;1.98;;;;;;;16.08;72.56;99725.03;10440731;28;20136;-74
2023/09/20 05:53:14;;;;;;;6.93;2.13;;;;;;;16.09;72.51;99723.19;10443575;28;20053;-73
2023/09/20 05:58:18;;;;;;;5.07;1.75;;;;;;;15.84;73.36;99731.41;10444242;28;20045;-74
2023/09/20 06:03:21;;;;;;;6.80;1.95;;;;;;;16.15;72.39;99728.75;10445992;28;20052;-73
2023/09/20 06:08:25;;;;;;;3.78;1.52;;;;;;;16.17;71.76;99727.72;10445910;28;20068;-74
2023/09/20 06:13:29;;;;;;;3.92;1.90;;;;;;;16.11;72.31;99731.97;10439821;28;20145;-74
2023/09/20 06:18:32;;;;;;;6.68;2.00;;;;;;;16.46;71.19;99727.09;10437309;28;20052;-75
2023/09/20 06:23:36;;;;;;;10.40;2.50;;;;;;;16.53;71.36;99738.91;10445911;28;20519;-74
2023/09/20 06:28:42;;;;;;;6.15;1.83;;;;;;;16.77;70.24;99729.75;10447938;28;20048;-74
2023/09/20 06:33:46;;;;;;;5.22;2.05;;;;;;;16.96;69.47;99728.44;10445251;28;21780;-74
2023/09/20 06:38:50;;;;;;;4.97;1.83;;;;;;;16.76;70.09;99728.09;10444182;28;20055;-75
2023/09/20 06:43:57;;;;;;;3.78;2.58;;;;;;;16.53;71.04;99723.47;10444567;28;21212;-75
2023/09/20 06:49:00;;;;;;;3.80;1.60;;;;;;;16.79;70.61;99717.72;10441534;28;20126;-75
2023/09/20 06:54:04;;;;;;;9.40;2.33;;;;;;;16.76;70.73;99722.66;10435931;28;20049;-75
2023/09/20 06:59:08;;;;;;;3.03;1.60;;;;;;;16.84;70.79;99711.75;10437476;28;20555;-76
2023/09/20 07:04:11;;;;;;;7.90;1.92;;;;;;;17.17;69.79;99714.22;10436618;28;20134;-75
2023/09/20 07:09:15;;;;;;;4.20;1.73;;;;;;;17.39;68.44;99718.75;10438144;28;20048;-75
2023/09/20 07:14:23;;;;;;;2.22;1.60;;;;;;;17.35;68.40;99724.72;10427215;28;20041;-75
2023/09/20 07:19:29;;;;;;;4.85;1.90;;;;;;;17.38;69.26;99722.47;10426408;28;20516;-75
2023/09/20 07:24:34;;;;;;;3.60;1.60;;;;;;;17.16;70.01;99710.66;10430894;28;20048;-76
2023/09/20 07:29:41;;;;;;;4.80;1.92;;;;;;;17.15;70.43;99716.28;10427147;28;20048;-76
2023/09/20 07:34:47;;;;;;;5.65;2.10;;;;;;;17.14;70.26;99709.13;10437501;28;20950;-76
2023/09/20 07:39:50;;;;;;;5.20;1.40;;;;;;;16.99;70.63;99693.63;10430707;28;20051;-75
2023/09/20 07:44:55;;;;;;;3.40;1.88;;;;;;;16.95;70.91;99700.47;10437451;28;20040;-76
2023/09/20 07:49:57;;;;;;;6.60;1.90;;;;;;;17.34;69.56;99701.34;10438545;28;20170;-75
2023/09/20 07:55:02;;;;;;;5.03;1.98;;;;;;;17.38;69.20;99703.47;10438906;28;20511;-75
2023/09/20 08:00:09;;;;;;;3.70;1.60;;;;;;;17.96;67.77;99705.53;10440102;28;20037;-76
2023/09/20 08:05:14;;;;;;;3.60;1.73;;;;;;;18.19;67.08;99705.47;10438601;28;20043;-76
2023/09/20 08:10:17;;;;;;;5.88;1.67;;;;;;;18.65;65.36;99696.97;10440131;28;20135;-76
2023/09/20 08:15:21;;;;;;;4.30;1.90;;;;;;;18.86;65.17;99698.88;10440107;28;20048;-76
2023/09/20 08:20:27;;;;;;;3.70;1.70;;;;;;;18.83;64.51;99711.00;10440096;28;20114;-76
2023/09/20 09:03:05;;;;;;;5.53;1.58;;;;;;;19.25;62.09;99714.72;10432087;28;20056;-76
2023/09/20 09:08:10;;;;;;;8.13;1.73;;;;;;;19.76;60.32;99700.84;10446107;28;20051;-75
2023/09/20 09:13:13;;;;;;;2.80;1.50;;;;;;;20.23;58.83;99704.63;10450996;28;20386;-75
2023/09/20 09:18:18;;;;;;;4.03;1.50;;;;;;;19.35;61.58;99717.94;10450513;28;20119;-75
2023/09/20 09:23:32;;;;;;;12.75;2.72;;;;;;;19.74;60.25;99683.00;10447004;28;20045;-75
2023/09/20 09:28:37;;;;;;;2.05;1.38;;;;;;;19.61;60.01;99670.16;10444020;28;20048;-76
2023/09/20 09:33:42;;;;;;;2.47;0.93;;;;;;;19.58;60.04;99681.44;10448625;28;20511;-76
2023/09/20 09:38:45;;;;;;;5.60;1.23;;;;;;;19.98;59.63;99679.78;10446525;28;20080;-76
2023/09/20 09:43:58;;;;;;;4.72;1.60;;;;;;;20.87;57.78;99653.38;10448793;28;20077;-76
2023/09/20 09:49:03;;;;;;;2.40;1.70;;;;;;;20.50;56.60;99669.28;10447249;28;20048;-76
2023/09/20 09:54:08;;;;;;;2.00;1.30;;;;;;;20.95;54.68;99659.50;10448012;28;20048;-76
2023/09/20 09:59:14;;;;;;;3.00;1.50;;;;;;;21.02;54.74;99668.50;10448893;28;20495;-75
2023/09/20 10:04:20;;;;;;;3.85;1.60;;;;;;;21.21;54.65;99653.19;10446796;28;20044;-75
2023/09/20 10:09:28;;;;;;;4.38;1.55;;;;;;;21.37;54.25;99651.06;10444007;28;21056;-76
2023/09/20 10:14:36;;;;;;;2.67;1.23;;;;;;;21.34;53.72;99662.44;10446304;28;20195;-76
2023/09/20 10:19:40;;;;;;;1.83;1.08;;;;;;;21.62;53.67;99681.28;10437619;28;20132;-76
2023/09/20 10:24:50;;;;;;;3.35;1.33;;;;;;;22.41;51.69;99679.34;10443011;28;20163;-75
2023/09/20 10:30:02;;;;;;;4.38;1.30;;;;;;;21.58;51.69;99656.25;10440650;28;20088;-76
2023/09/20 10:35:27;;;;;;;2.05;1.30;;;;;;;21.34;53.50;99665.16;10436686;28;20075;-76
2023/09/20 10:41:02;;;;;;;2.63;1.08;;;;;;;21.96;51.99;99682.88;10444709;28;20037;-75
2023/09/20 10:46:08;;;;;;;2.35;1.02;;;;;;;21.38;53.03;99680.06;10445897;28;20049;-76
2023/09/20 10:51:12;;;;;;;3.83;1.20;;;;;;;22.37;51.26;99692.59;10443858;28;20044;-76
2023/09/20 10:56:54;;;;;;;4.70;1.13;;;;;;;22.19;50.89;99676.91;10443286;28;20626;-75
2023/09/20 11:02:01;;;;;;;1.88;1.30;;;;;;;22.38;49.22;99679.75;10439791;28;20048;-75
2023/09/20 11:07:06;;;;;;;1.88;1.27;;;;;;;21.51;51.61;99676.47;10444303;28;20080;-75
2023/09/20 11:12:09;;;;;;;4.85;1.75;;;;;;;21.44;51.54;99676.47;10445049;28;20116;-75
2023/09/20 11:17:14;;;;;;;3.35;1.20;;;;;;;21.08;52.42;99699.63;10443076;28;20068;-75
2023/09/20 11:22:20;;;;;;;3.50;1.33;;;;;;;21.18;54.31;99680.94;10443919;28;20048;-76
2023/09/20 11:27:24;;;;;;;2.97;0.95;;;;;;;21.47;53.38;99667.00;10444868;28;20044;-75
2023/09/20 11:32:27;;;;;;;2.80;0.82;;;;;;;22.18;53.05;99675.22;10446606;28;20046;-76
2023/09/20 11:37:32;;;;;;;1.42;0.80;;;;;;;22.63;51.07;99732.69;10440742;28;20536;-76
2023/09/20 11:42:37;;;;;;;6.47;1.20;;;;;;;22.73;50.94;99686.50;10440245;28;20048;-76
2023/09/20 11:47:42;;;;;;;2.45;0.80;;;;;;;23.03;50.04;99687.75;10438266;28;20045;-76
2023/09/20 11:52:48;;;;;;;1.35;0.80;;;;;;;22.65;50.34;99700.44;10438836;28;20694;-76
2023/09/20 11:57:53;;;;;;;1.35;0.70;;;;;;;21.77;53.70;99681.88;10438754;28;20053;-76
2023/09/20 12:02:57;;;;;;;2.33;0.93;;;;;;;21.54;53.32;99689.72;10438016;28;20053;-76
2023/09/20 12:08:06;;;;;;;1.17;0.90;;;;;;;22.21;51.64;99690.34;10435746;28;20245;-76
2023/09/20 12:13:09;;;;;;;2.63;0.70;;;;;;;22.83;50.27;99672.34;10433118;28;20067;-75
2023/09/20 12:18:14;;;;;;;3.55;1.23;;;;;;;22.87;51.03;99659.03;10442273;28;20157;-75
2023/09/20 12:23:18;;;;;;;1.73;1.10;;;;;;;22.31;50.95;99656.00;10448132;28;20102;-75
2023/09/20 12:28:23;;;;;;;2.60;0.93;;;;;;;22.69;51.09;99652.44;10444547;28;20049;-75
2023/09/20 12:33:26;;;;;;;2.55;1.10;;;;;;;24.35;46.55;99644.38;10441520;28;20694;-75
2023/09/20 12:38:30;;;;;;;1.25;0.98;;;;;;;23.58;48.21;99644.06;10440378;28;20097;-75
2023/09/20 12:43:33;;;;;;;2.20;1.10;;;;;;;23.08;49.62;99633.16;10447323;28;20718;-76
2023/09/20 12:48:37;;;;;;;5.95;0.90;;;;;;;25.45;46.07;99623.78;10449977;28;20708;-75
2023/09/20 12:53:42;;;;;;;2.28;0.70;;;;;;;26.15;44.13;99628.31;10450003;28;20041;-76
2023/09/20 12:58:46;;;;;;;3.10;1.05;;;;;;;24.19;47.26;99631.31;10442659;28;20060;-76
2023/09/20 13:03:49;;;;;;;2.50;0.88;;;;;;;24.55;45.72;99611.19;10446438;28;20048;-76
2023/09/20 13:08:53;;;;;;;1.48;0.80;;;;;;;23.33;48.30;99614.81;10452397;28;20048;-76
2023/09/20 13:13:56;;;;;;;3.08;0.90;;;;;;;23.48;48.80;99617.19;10445095;28;20628;-76
2023/09/20 13:19:00;;;;;;;1.98;1.08;;;;;;;23.33;48.23;99612.06;10439208;28;20045;-76
2023/09/20 13:24:09;;;;;;;3.55;1.02;;;;;;;23.46;47.47;99611.09;10448796;28;20138;-76
2023/09/20 13:29:13;;;;;;;1.98;1.05;;;;;;;22.93;48.54;99590.53;10445581;28;20045;-76
2023/09/20 13:34:16;;;;;;;1.35;0.77;;;;;;;22.68;49.18;99579.59;10450989;28;20045;-76
2023/09/20 13:39:20;;;;;;;2.00;1.10;;;;;;;23.49;48.12;99579.66;10446480;28;20049;-76
2023/09/20 13:44:23;;;;;;;2.00;1.63;;;;;;;24.28;46.53;99578.63;10438816;28;20066;-76
2023/09/20 13:49:27;;;;;;;1.30;0.88;;;;;;;24.68;46.11;99583.53;10453378;28;20048;-76
2023/09/20 13:54:31;;;;;;;1.20;0.88;;;;;;;25.38;43.46;99560.72;10450605;28;20052;-75
2023/09/20 13:59:36;;;;;;;2.47;1.05;;;;;;;25.69;43.05;99557.81;10451013;28;20041;-75
2023/09/20 14:04:39;;;;;;;3.10;1.15;;;;;;;26.46;41.11;99571.09;10444500;28;20044;-76
2023/09/20 14:09:43;;;;;;;1.45;1.00;;;;;;;24.30;45.06;99557.28;10441038;28;20044;-75
2023/09/20 14:14:47;;;;;;;2.17;0.95;;;;;;;23.63;45.65;99545.53;10443547;28;20165;-76
2023/09/20 14:19:51;;;;;;;2.72;1.00;;;;;;;24.36;45.39;99550.03;10444866;28;20504;-76
2023/09/20 14:24:56;;;;;;;1.73;1.10;;;;;;;24.05;45.95;99551.97;10447752;28;20056;-75
2023/09/20 14:29:59;;;;;;;3.53;0.80;;;;;;;23.33;46.54;99548.22;10454190;28;20438;-75
2023/09/20 14:35:03;;;;;;;1.90;1.17;;;;;;;22.76;47.95;99532.78;10452450;28;20065;-75
2023/09/20 14:40:12;;;;;;;3.88;1.25;;;;;;;22.97;47.92;99530.69;10457678;28;20052;-75
2023/09/20 14:45:17;;;;;;;1.33;1.20;;;;;;;22.39;49.01;99529.06;10455594;28;20169;-75
2023/09/20 14:50:21;;;;;;;2.08;1.30;;;;;;;22.01;50.68;99532.69;10454343;28;21719;-75
2023/09/20 14:55:28;;;;;;;3.40;1.48;;;;;;;21.85;50.76;99522.28;10453171;28;20122;-75
2023/09/20 15:00:33;;;;;;;1.77;1.17;;;;;;;21.79;51.47;99520.44;10447572;28;20075;-75
2023/09/20 15:05:37;;;;;;;3.15;1.30;;;;;;;21.68;51.92;99503.63;10442111;28;20432;-75
2023/09/20 15:10:43;;;;;;;3.72;1.58;;;;;;;21.76;51.90;99501.75;10444922;28;20117;-74
2023/09/20 15:15:46;;;;;;;1.75;1.05;;;;;;;21.86;51.70;99497.47;10442477;28;21584;-75
2023/09/20 15:20:50;;;;;;;3.13;1.33;;;;;;;21.77;52.46;99493.31;10436182;28;20053;-75
2023/09/20 15:25:54;;;;;;;2.40;1.30;;;;;;;21.78;52.67;99488.69;10438962;28;20048;-75
2023/09/20 15:30:57;;;;;;;2.95;1.20;;;;;;;21.70;53.49;99483.47;10438064;28;20052;-75
2023/09/20 15:36:01;;;;;;;3.17;1.30;;;;;;;21.57;54.36;99479.72;10428911;28;20538;-77
2023/09/20 15:41:06;;;;;;;2.30;1.27;;;;;;;22.28;53.20;99459.50;10436439;28;20041;-75
2023/09/20 15:46:13;;;;;;;3.53;1.70;;;;;;;23.16;49.99;99469.41;10431597;28;20814;-76
2023/09/20 15:51:16;;;;;;;4.05;1.30;;;;;;;23.32;49.50;99467.09;10436543;28;20127;-76
2023/09/20 15:56:22;;;;;;;2.88;1.13;;;;;;;23.74;48.57;99461.69;10441795;28;20097;-76
2023/09/20 16:01:26;;;;;;;3.13;1.38;;;;;;;23.96;48.54;99456.53;10443542;28;20049;-76
2023/09/20 16:06:30;;;;;;;2.35;1.67;;;;;;;22.84;49.58;99468.66;10441484;28;20810;-76
2023/09/20 16:11:34;;;;;;;2.88;1.42;;;;;;;23.12;50.30;99461.84;10442298;28;20044;-76
2023/09/20 16:16:38;;;;;;;4.10;1.50;;;;;;;23.16;49.77;99460.34;10452540;28;20044;-75
2023/09/20 16:21:41;;;;;;;3.38;1.50;;;;;;;22.91;50.08;99449.44;10453825;28;20114;-75
2023/09/20 16:26:45;;;;;;;2.28;1.50;;;;;;;23.10;50.14;99447.53;10451701;28;20060;-75
2023/09/20 16:31:48;;;;;;;3.83;1.65;;;;;;;22.95;50.69;99442.44;10461198;28;20086;-75
2023/09/20 16:36:51;;;;;;;2.90;1.50;;;;;;;22.73;51.45;99440.13;10456917;28;21740;-75
2023/09/20 16:41:57;;;;;;;2.20;1.60;;;;;;;22.24;52.50;99444.63;10459736;28;20768;-75
2023/09/20 16:47:00;;;;;;;1.83;1.40;;;;;;;22.12;53.71;99440.91;10463338;28;20651;-75
2023/09/20 16:52:03;;;;;;;2.85;1.60;;;;;;;21.65;54.66;99429.44;10456674;28;20045;-75
2023/09/20 16:57:09;;;;;;;5.05;1.98;;;;;;;21.25;56.26;99416.00;10447575;28;21312;-75
2023/09/20 17:02:12;;;;;;;4.50;1.65;;;;;;;21.09;56.93;99422.81;10448275;28;20052;-75
2023/09/20 17:07:15;;;;;;;4.45;1.80;;;;;;;20.87;57.90;99415.94;10438993;28;20048;-75
2023/09/20 17:12:20;;;;;;;4.57;1.55;;;;;;;20.66;59.04;99408.88;10444623;28;20056;-75
2023/09/20 17:17:22;;;;;;;1.88;1.42;;;;;;;20.53;59.67;99405.09;10452203;28;20507;-75
2023/09/20 17:22:26;;;;;;;6.22;1.60;;;;;;;20.40;60.13;99401.56;10450830;28;20072;-75
2023/09/20 17:27:30;;;;;;;2.30;1.90;;;;;;;20.20;61.46;99396.94;10447694;28;20060;-75
2023/09/20 17:32:33;;;;;;;2.40;1.85;;;;;;;20.01;62.33;99395.91;10442699;28;20241;-75
2023/09/20 17:37:36;;;;;;;4.53;2.33;;;;;;;19.92;62.85;99388.16;10443040;28;20057;-75
2023/09/20 17:42:40;;;;;;;2.38;1.65;;;;;;;19.85;63.57;99390.88;10441980;28;20048;-75
2023/09/20 17:47:44;;;;;;;4.68;2.13;;;;;;;19.71;64.47;99391.94;10440799;28;20056;-75
2023/09/20 17:52:50;;;;;;;3.33;2.78;;;;;;;19.57;65.39;99393.78;10450336;28;20060;-75
2023/09/20 17:57:56;;;;;;;3.80;2.63;;;;;;;19.45;65.87;99391.66;10448460;28;20051;-74
2023/09/20 18:02:59;;;;;;;2.83;2.35;;;;;;;19.29;66.80;99400.19;10428325;28;20048;-74
2023/09/20 18:08:03;;;;;;;5.47;2.05;;;;;;;19.21;67.21;99406.66;10430968;28;20060;-73
2023/09/20 18:13:07;;;;;;;4.03;2.35;;;;;;;19.13;67.71;99398.66;10455225;28;20676;-74
2023/09/20 18:18:10;;;;;;;6.13;4.18;;;;;;;19.03;68.29;99403.66;10450946;28;20117;-74
2023/09/20 18:23:14;;;;;;;8.45;2.50;;;;;;;19.02;68.37;99400.09;10446377;28;20421;-74
2023/09/20 18:28:19;;;;;;;4.60;3.10;;;;;;;18.97;68.70;99401.75;10441025;28;20165;-74
2023/09/20 18:33:22;;;;;;;4.25;2.10;;;;;;;18.95;68.91;99401.97;10443044;28;20051;-75
2023/09/20 18:38:26;;;;;;;2.10;1.90;;;;;;;19.04;68.04;99407.22;10437297;28;20096;-75
2023/09/20 18:43:31;;;;;;;2.33;1.88;;;;;;;19.14;67.03;99399.50;10436054;28;20388;-75
2023/09/20 18:48:36;;;;;;;5.88;2.35;;;;;;;19.14;66.92;99402.22;10435443;28;20711;-75
2023/09/20 18:53:39;;;;;;;4.03;1.90;;;;;;;19.11;66.64;99395.31;10426853;28;20045;-75
2023/09/20 18:58:43;;;;;;;3.05;1.77;;;;;;;19.11;65.89;99399.91;10434603;28;20045;-75
2023/09/20 19:03:47;;;;;;;3.72;2.28;;;;;;;19.12;65.53;99401.63;10447252;28;20053;-75
2023/09/20 19:08:52;;;;;;;3.17;1.90;;;;;;;19.15;64.70;99393.88;10448925;28;20085;-75
2023/09/20 19:13:58;;;;;;;2.67;1.90;;;;;;;19.12;64.09;99388.84;10448694;28;20078;-75
2023/09/20 19:19:01;;;;;;;2.35;1.48;;;;;;;19.17;63.40;99383.63;10447585;28;20058;-75
2023/09/20 19:24:09;;;;;;;3.72;2.00;;;;;;;19.14;63.67;99386.75;10450849;28;20076;-75
2023/09/20 19:29:13;;;;;;;2.90;1.98;;;;;;;19.11;63.73;99378.97;10448239;28;20059;-75
2023/09/20 19:34:17;;;;;;;3.25;1.83;;;;;;;18.86;65.18;99378.69;10442652;28;20056;-75
2023/09/20 19:39:19;;;;;;;3.25;2.03;;;;;;;18.67;66.55;99365.78;10441763;28;20056;-75
2023/09/20 19:44:25;;;;;;;2.95;1.88;;;;;;;18.52;67.53;99369.50;10443130;28;20075;-75
2023/09/20 19:49:29;;;;;;;4.63;1.80;;;;;;;18.51;67.62;99364.25;10440411;28;20055;-76
2023/09/20 19:54:32;;;;;;;4.93;1.90;;;;;;;18.55;66.49;99366.38;10436888;28;20402;-75
2023/09/20 19:59:37;;;;;;;4.18;1.77;;;;;;;18.64;65.74;99367.03;10439311;28;20048;-75
2023/09/20 20:04:40;;;;;;;4.18;1.80;;;;;;;18.70;64.85;99368.94;10452173;28;20040;-74
2023/09/20 20:09:43;;;;;;;3.28;1.42;;;;;;;18.73;64.36;99378.56;10449137;28;20417;-75
2023/09/20 20:14:50;;;;;;;4.05;1.80;;;;;;;18.74;64.02;99378.41;10449893;28;20082;-74
2023/09/20 20:19:55;;;;;;;4.15;2.10;;;;;;;18.77;64.03;99379.88;10448402;28;20083;-74
2023/09/20 20:24:58;;;;;;;5.35;1.60;;;;;;;18.74;64.02;99375.66;10446556;28;20047;-74
2023/09/20 20:30:02;;;;;;;5.80;2.15;;;;;;;18.67;63.93;99365.78;10445287;28;20162;-74
2023/09/20 20:35:08;;;;;;;2.53;1.70;;;;;;;18.72;63.40;99364.16;10447007;28;20079;-74
2023/09/20 20:40:13;;;;;;;4.05;1.88;;;;;;;18.69;63.36;99364.56;10446428;28;20135;-74
2023/09/20 20:45:19;;;;;;;5.30;1.60;;;;;;;18.70;63.42;99355.34;10444698;28;20057;-74
2023/09/20 20:50:26;;;;;;;3.65;1.45;;;;;;;18.52;63.57;99347.75;10439377;28;20128;-75
2023/09/20 20:55:30;;;;;;;3.05;1.52;;;;;;;18.64;63.19;99347.16;10433732;28;20152;-75
2023/09/20 21:00:35;;;;;;;3.22;1.73;;;;;;;18.62;62.93;99341.09;10435334;28;20049;-75
2023/09/20 21:05:39;;;;;;;3.00;1.45;;;;;;;18.55;63.10;99335.63;10441346;28;20048;-75
2023/09/20 21:10:44;;;;;;;1.85;1.58;;;;;;;18.59;62.91;99326.00;10443141;28;20047;-75
2023/09/20 21:15:49;;;;;;;3.13;1.98;;;;;;;18.64;62.59;99323.53;10445865;28;20129;-75
2023/09/20 21:20:55;;;;;;;5.07;1.70;;;;;;;18.69;62.48;99322.94;10447811;28;20599;-75
2023/09/20 21:25:58;;;;;;;2.47;1.60;;;;;;;18.68;62.17;99323.97;10443947;28;20127;-74
2023/09/20 21:31:03;;;;;;;6.53;1.60;;;;;;;18.69;62.24;99318.31;10442219;28;20127;-75
2023/09/20 21:36:06;;;;;;;3.00;2.00;;;;;;;18.65;62.37;99325.22;10439453;28;20186;-74
2023/09/20 21:41:11;;;;;;;3.35;1.80;;;;;;;18.58;62.37;99321.63;10440792;28;20783;-74
2023/09/20 21:46:15;;;;;;;2.47;1.88;;;;;;;18.45;62.77;99325.09;10438389;28;20041;-75
2023/09/20 21:51:18;;;;;;;2.33;1.50;;;;;;;18.49;62.71;99314.69;10439544;28;20338;-75
2023/09/20 21:56:21;;;;;;;4.28;1.60;;;;;;;18.48;62.70;99307.56;10441981;28;20057;-75
2023/09/20 22:01:25;;;;;;;1.80;1.60;;;;;;;18.46;62.60;99317.81;10445196;28;21147;-75
2023/09/20 22:06:28;;;;;;;5.75;1.88;;;;;;;18.41;62.59;99314.84;10440449;28;20048;-75
2023/09/20 22:11:31;;;;;;;3.88;1.77;;;;;;;18.49;62.23;99306.53;10435262;28;20572;-75
2023/09/20 22:16:35;;;;;;;3.33;1.63;;;;;;;18.48;62.20;99307.56;10436414;28;20049;-75
2023/09/20 22:21:39;;;;;;;2.88;1.55;;;;;;;18.43;62.28;99297.31;10440114;28;20055;-74
2023/09/20 22:26:41;;;;;;;4.22;1.80;;;;;;;18.47;62.03;99298.56;10445808;28;20198;-75
2023/09/20 22:31:45;;;;;;;3.10;1.60;;;;;;;18.46;62.17;99298.78;10444245;28;20428;-74
2023/09/20 22:36:48;;;;;;;3.20;1.88;;;;;;;18.42;62.33;99286.63;10439531;28;20476;-74
2023/09/20 22:41:51;;;;;;;3.10;2.08;;;;;;;18.38;62.31;99282.66;10436064;28;20819;-74
2023/09/20 22:46:55;;;;;;;4.60;2.33;;;;;;;18.39;62.15;99278.88;10436501;28;20049;-75
2023/09/20 22:51:58;;;;;;;2.05;1.70;;;;;;;18.41;62.18;99264.03;10433270;28;20130;-74
2023/09/20 22:57:01;;;;;;;4.43;1.90;;;;;;;18.41;62.21;99255.03;10433833;28;20052;-74
2023/09/20 23:02:06;;;;;;;3.85;1.90;;;;;;;18.48;61.76;99245.00;10432410;28;20511;-74
2023/09/20 23:07:10;;;;;;;4.45;1.90;;;;;;;18.51;61.64;99250.03;10432835;28;20582;-74
2023/09/20 23:12:14;;;;;;;2.67;2.00;;;;;;;18.46;61.97;99244.41;10433401;28;20036;-74
2023/09/20 23:17:21;;;;;;;4.72;1.90;;;;;;;18.44;61.85;99239.16;10434167;28;20051;-74
2023/09/20 23:22:24;;;;;;;1.85;1.65;;;;;;;18.39;61.92;99235.38;10427704;28;20099;-75
2023/09/20 23:27:29;;;;;;;2.92;2.15;;;;;;;18.36;62.19;99223.84;10430554;28;20076;-75
2023/09/20 23:32:33;;;;;;;2.70;1.67;;;;;;;18.41;62.02;99225.97;10433074;28;20051;-75
2023/09/20 23:37:37;;;;;;;3.45;2.00;;;;;;;18.46;61.55;99223.50;10438847;28;20523;-75
2023/09/20 23:42:42;;;;;;;3.00;2.20;;;;;;;18.47;61.17;99217.00;10438141;28;20052;-75
2023/09/20 23:47:46;;;;;;;3.05;1.63;;;;;;;18.42;61.38;99210.50;10430151;28;20052;-75
2023/09/20 23:52:49;;;;;;;2.45;1.65;;;;;;;18.46;61.28;99206.34;10429850;28;20152;-75
2023/09/20 23:57:53;;;;;;;1.92;1.60;;;;;;;18.42;61.37;99207.78;10434727;28;20191;-75
